sensor_id;sensor_type;location;lat;lon;timestamp;temperature;humidity
32660;DHT22;19064;47.912;12.308;2023-06-10T00:00:43;16.60;99.90
32660;DHT22;19064;47.912;12.308;2023-06-10T00:03:10;16.60;99.90
32660;DHT22;19064;47.912;12.308;2023-06-10T00:05:39;16.60;99.90
32660;DHT22;19064;47.912;12.308;2023-06-10T00:08:06;16.60;99.90
32660;DHT22;19064;47.912;12.308;2023-06-10T00:10:33;16.50;99.90
32660;DHT22;19064;47.912;12.308;2023-06-10T00:13:01;16.50;99.90
32660;DHT22;19064;47.912;12.308;2023-06-10T00:15:27;16.50;99.90
32660;DHT22;19064;47.912;12.308;2023-06-10T00:17:54;16.50;99.90
32660;DHT22;19064;47.912;12.308;2023-06-10T00:20:21;16.40;99.90
32660;DHT22;19064;47.912;12.308;2023-06-10T00:22:50;16.40;99.90
32660;DHT22;19064;47.912;12.308;2023-06-10T00:25:18;16.40;99.90
32660;DHT22;19064;47.912;12.308;2023-06-10T00:27:44;16.30;99.90
32660;DHT22;19064;47.912;12.308;2023-06-10T00:30:12;16.30;99.90
32660;DHT22;19064;47.912;12.308;2023-06-10T00:32:39;16.30;99.90
32660;DHT22;19064;47.912;12.308;2023-06-10T00:35:06;16.20;99.90
32660;DHT22;19064;47.912;12.308;2023-06-10T00:37:33;16.20;99.90
32660;DHT22;19064;47.912;12.308;2023-06-10T00:40:03;16.20;99.90
32660;DHT22;19064;47.912;12.308;2023-06-10T00:42:30;16.20;99.90
32660;DHT22;19064;47.912;12.308;2023-06-10T00:44:56;16.20;99.90
32660;DHT22;19064;47.912;12.308;2023-06-10T00:47:25;16.10;99.90
32660;DHT22;19064;47.912;12.308;2023-06-10T00:49:52;16.10;99.90
32660;DHT22;19064;47.912;12.308;2023-06-10T00:52:22;16.10;99.90
32660;DHT22;19064;47.912;12.308;2023-06-10T00:54:52;16.10;99.90
32660;DHT22;19064;47.912;12.308;2023-06-10T00:57:20;16.10;99.90
32660;DHT22;19064;47.912;12.308;2023-06-10T00:59:48;16.00;99.90
32660;DHT22;19064;47.912;12.308;2023-06-10T01:02:15;15.80;99.90
32660;DHT22;19064;47.912;12.308;2023-06-10T01:04:43;15.60;99.90
32660;DHT22;19064;47.912;12.308;2023-06-10T01:07:14;15.60;99.90
32660;DHT22;19064;47.912;12.308;2023-06-10T01:09:52;15.40;99.90
32660;DHT22;19064;47.912;12.308;2023-06-10T01:12:30;15.60;99.90
32660;DHT22;19064;47.912;12.308;2023-06-10T01:14:58;15.70;99.90
32660;DHT22;19064;47.912;12.308;2023-06-10T01:17:26;15.80;99.90
32660;DHT22;19064;47.912;12.308;2023-06-10T01:19:54;15.80;99.90
32660;DHT22;19064;47.912;12.308;2023-06-10T01:22:23;15.80;99.90
32660;DHT22;19064;47.912;12.308;2023-06-10T01:24:52;15.80;99.90
32660;DHT22;19064;47.912;12.308;2023-06-10T01:27:21;15.60;99.90
32660;DHT22;19064;47.912;12.308;2023-06-10T01:29:56;15.40;99.90
32660;DHT22;19064;47.912;12.308;2023-06-10T01:32:34;15.20;99.90
32660;DHT22;19064;47.912;12.308;2023-06-10T01:35:05;15.00;99.90
32660;DHT22;19064;47.912;12.308;2023-06-10T01:37:36;14.80;99.90
32660;DHT22;19064;47.912;12.308;2023-06-10T01:40:06;14.70;99.90
32660;DHT22;19064;47.912;12.308;2023-06-10T01:42:33;14.70;99.90
32660;DHT22;19064;47.912;12.308;2023-06-10T01:45:00;14.90;99.90
32660;DHT22;19064;47.912;12.308;2023-06-10T01:47:27;15.10;99.90
32660;DHT22;19064;47.912;12.308;2023-06-10T01:49:54;15.10;99.90
32660;DHT22;19064;47.912;12.308;2023-06-10T01:52:21;15.00;99.90
32660;DHT22;19064;47.912;12.308;2023-06-10T01:54:49;15.10;99.90
32660;DHT22;19064;47.912;12.308;2023-06-10T01:57:16;15.10;99.90
32660;DHT22;19064;47.912;12.308;2023-06-10T01:59:42;15.10;99.90
32660;DHT22;19064;47.912;12.308;2023-06-10T02:02:10;15.10;99.90
32660;DHT22;19064;47.912;12.308;2023-06-10T02:04:36;15.00;99.90
32660;DHT22;19064;47.912;12.308;2023-06-10T02:07:04;14.80;99.90
32660;DHT22;19064;47.912;12.308;2023-06-10T02:09:31;14.70;99.90
32660;DHT22;19064;47.912;12.308;2023-06-10T02:12:02;14.60;99.90
32660;DHT22;19064;47.912;12.308;2023-06-10T02:14:28;14.40;99.90
32660;DHT22;19064;47.912;12.308;2023-06-10T02:16:55;14.40;99.90
32660;DHT22;19064;47.912;12.308;2023-06-10T02:19:23;14.40;99.90
32660;DHT22;19064;47.912;12.308;2023-06-10T02:21:50;14.30;99.90
32660;DHT22;19064;47.912;12.308;2023-06-10T02:24:17;14.30;99.90
32660;DHT22;19064;47.912;12.308;2023-06-10T02:26:44;14.20;99.90
32660;DHT22;19064;47.912;12.308;2023-06-10T02:29:14;14.10;99.90
32660;DHT22;19064;47.912;12.308;2023-06-10T02:31:41;14.00;99.90
32660;DHT22;19064;47.912;12.308;2023-06-10T02:34:08;14.00;99.90
32660;DHT22;19064;47.912;12.308;2023-06-10T02:36:35;13.90;99.90
32660;DHT22;19064;47.912;12.308;2023-06-10T02:39:02;13.90;99.90
32660;DHT22;19064;47.912;12.308;2023-06-10T02:41:29;13.80;99.90
32660;DHT22;19064;47.912;12.308;2023-06-10T02:43:56;13.80;99.90
32660;DHT22;19064;47.912;12.308;2023-06-10T02:46:24;13.80;99.90
32660;DHT22;19064;47.912;12.308;2023-06-10T02:48:51;13.70;99.90
32660;DHT22;19064;47.912;12.308;2023-06-10T02:51:18;13.70;99.90
32660;DHT22;19064;47.912;12.308;2023-06-10T02:53:46;13.60;99.90
32660;DHT22;19064;47.912;12.308;2023-06-10T02:56:15;13.50;99.90
32660;DHT22;19064;47.912;12.308;2023-06-10T02:58:42;13.60;99.90
32660;DHT22;19064;47.912;12.308;2023-06-10T03:01:09;13.50;99.90
32660;DHT22;19064;47.912;12.308;2023-06-10T03:03:37;13.60;99.90
32660;DHT22;19064;47.912;12.308;2023-06-10T03:06:07;13.40;99.90
32660;DHT22;19064;47.912;12.308;2023-06-10T03:08:35;13.60;99.90
32660;DHT22;19064;47.912;12.308;2023-06-10T03:11:02;13.70;99.90
32660;DHT22;19064;47.912;12.308;2023-06-10T03:13:29;13.80;99.90
32660;DHT22;19064;47.912;12.308;2023-06-10T03:15:56;14.00;99.90
32660;DHT22;19064;47.912;12.308;2023-06-10T03:18:27;14.10;99.90
32660;DHT22;19064;47.912;12.308;2023-06-10T03:20:55;14.20;99.90
32660;DHT22;19064;47.912;12.308;2023-06-10T03:23:23;14.20;99.90
32660;DHT22;19064;47.912;12.308;2023-06-10T03:25:49;14.30;99.90
32660;DHT22;19064;47.912;12.308;2023-06-10T03:28:16;14.30;99.90
32660;DHT22;19064;47.912;12.308;2023-06-10T03:30:43;14.40;99.90
32660;DHT22;19064;47.912;12.308;2023-06-10T03:33:10;14.40;99.90
32660;DHT22;19064;47.912;12.308;2023-06-10T03:35:36;14.20;99.90
32660;DHT22;19064;47.912;12.308;2023-06-10T03:38:05;14.10;99.90
32660;DHT22;19064;47.912;12.308;2023-06-10T03:40:32;14.00;99.90
32660;DHT22;19064;47.912;12.308;2023-06-10T03:43:00;13.90;99.90
32660;DHT22;19064;47.912;12.308;2023-06-10T03:45:27;13.80;99.90
32660;DHT22;19064;47.912;12.308;2023-06-10T03:47:54;13.80;99.90
32660;DHT22;19064;47.912;12.308;2023-06-10T03:50:21;13.60;99.90
32660;DHT22;19064;47.912;12.308;2023-06-10T03:52:50;13.70;99.90
32660;DHT22;19064;47.912;12.308;2023-06-10T03:55:18;13.60;99.90
32660;DHT22;19064;47.912;12.308;2023-06-10T03:57:47;13.70;99.90
32660;DHT22;19064;47.912;12.308;2023-06-10T04:00:15;13.60;99.90
32660;DHT22;19064;47.912;12.308;2023-06-10T04:02:43;13.60;99.90
32660;DHT22;19064;47.912;12.308;2023-06-10T04:05:13;13.60;99.90
32660;DHT22;19064;47.912;12.308;2023-06-10T04:07:40;13.60;99.90
32660;DHT22;19064;47.912;12.308;2023-06-10T04:10:08;13.60;99.90
32660;DHT22;19064;47.912;12.308;2023-06-10T04:12:38;13.70;99.90
32660;DHT22;19064;47.912;12.308;2023-06-10T04:15:06;13.90;99.90
32660;DHT22;19064;47.912;12.308;2023-06-10T04:17:34;14.10;99.90
32660;DHT22;19064;47.912;12.308;2023-06-10T04:20:01;14.20;99.90
32660;DHT22;19064;47.912;12.308;2023-06-10T04:22:29;14.40;99.90
32660;DHT22;19064;47.912;12.308;2023-06-10T04:24:57;14.50;99.90
32660;DHT22;19064;47.912;12.308;2023-06-10T04:27:24;14.70;99.90
32660;DHT22;19064;47.912;12.308;2023-06-10T04:29:52;14.80;99.90
32660;DHT22;19064;47.912;12.308;2023-06-10T04:32:20;15.00;99.90
32660;DHT22;19064;47.912;12.308;2023-06-10T04:34:46;15.10;99.90
32660;DHT22;19064;47.912;12.308;2023-06-10T04:37:13;15.30;99.90
32660;DHT22;19064;47.912;12.308;2023-06-10T04:39:40;15.50;99.90
32660;DHT22;19064;47.912;12.308;2023-06-10T04:42:07;15.50;99.90
32660;DHT22;19064;47.912;12.308;2023-06-10T04:44:34;15.60;99.90
32660;DHT22;19064;47.912;12.308;2023-06-10T04:47:02;15.80;99.90
32660;DHT22;19064;47.912;12.308;2023-06-10T04:49:29;15.80;99.90
32660;DHT22;19064;47.912;12.308;2023-06-10T04:51:57;15.90;99.90
32660;DHT22;19064;47.912;12.308;2023-06-10T04:54:26;16.10;99.90
32660;DHT22;19064;47.912;12.308;2023-06-10T04:56:53;16.30;99.90
32660;DHT22;19064;47.912;12.308;2023-06-10T04:59:20;16.40;99.90
32660;DHT22;19064;47.912;12.308;2023-06-10T05:01:47;16.60;99.90
32660;DHT22;19064;47.912;12.308;2023-06-10T05:04:15;16.60;99.90
32660;DHT22;19064;47.912;12.308;2023-06-10T05:06:42;16.60;99.90
32660;DHT22;19064;47.912;12.308;2023-06-10T05:09:09;16.30;99.90
32660;DHT22;19064;47.912;12.308;2023-06-10T05:11:36;16.40;99.90
32660;DHT22;19064;47.912;12.308;2023-06-10T05:14:03;16.30;99.90
32660;DHT22;19064;47.912;12.308;2023-06-10T05:16:29;16.40;99.90
32660;DHT22;19064;47.912;12.308;2023-06-10T05:18:57;16.50;99.90
32660;DHT22;19064;47.912;12.308;2023-06-10T05:21:26;16.50;99.90
32660;DHT22;19064;47.912;12.308;2023-06-10T05:23:52;16.40;99.90
32660;DHT22;19064;47.912;12.308;2023-06-10T05:26:20;16.50;99.90
32660;DHT22;19064;47.912;12.308;2023-06-10T05:28:47;16.60;99.90
32660;DHT22;19064;47.912;12.308;2023-06-10T05:31:14;16.60;99.90
32660;DHT22;19064;47.912;12.308;2023-06-10T05:33:41;16.60;99.90
32660;DHT22;19064;47.912;12.308;2023-06-10T05:36:08;16.50;99.90
32660;DHT22;19064;47.912;12.308;2023-06-10T05:38:36;16.60;99.90
32660;DHT22;19064;47.912;12.308;2023-06-10T05:41:03;16.70;99.90
32660;DHT22;19064;47.912;12.308;2023-06-10T05:43:30;16.70;99.90
32660;DHT22;19064;47.912;12.308;2023-06-10T05:45:57;16.60;99.90
32660;DHT22;19064;47.912;12.308;2023-06-10T05:48:23;16.70;99.90
32660;DHT22;19064;47.912;12.308;2023-06-10T05:50:50;16.70;99.90
32660;DHT22;19064;47.912;12.308;2023-06-10T05:53:17;16.80;99.90
32660;DHT22;19064;47.912;12.308;2023-06-10T05:55:46;16.60;99.90
32660;DHT22;19064;47.912;12.308;2023-06-10T05:58:13;16.60;99.90
32660;DHT22;19064;47.912;12.308;2023-06-10T06:00:41;16.60;99.90
32660;DHT22;19064;47.912;12.308;2023-06-10T06:03:08;16.70;99.90
32660;DHT22;19064;47.912;12.308;2023-06-10T06:05:36;16.80;99.90
32660;DHT22;19064;47.912;12.308;2023-06-10T06:08:04;16.80;99.90
32660;DHT22;19064;47.912;12.308;2023-06-10T06:10:30;16.90;99.90
32660;DHT22;19064;47.912;12.308;2023-06-10T06:12:59;16.90;99.90
32660;DHT22;19064;47.912;12.308;2023-06-10T06:15:26;16.90;99.90
32660;DHT22;19064;47.912;12.308;2023-06-10T06:17:53;16.90;99.90
32660;DHT22;19064;47.912;12.308;2023-06-10T06:20:22;17.00;99.90
32660;DHT22;19064;47.912;12.308;2023-06-10T06:22:49;17.00;99.90
32660;DHT22;19064;47.912;12.308;2023-06-10T06:25:16;16.90;99.90
32660;DHT22;19064;47.912;12.308;2023-06-10T06:27:43;16.90;99.90
32660;DHT22;19064;47.912;12.308;2023-06-10T06:30:12;17.00;99.90
32660;DHT22;19064;47.912;12.308;2023-06-10T06:32:39;17.10;99.90
32660;DHT22;19064;47.912;12.308;2023-06-10T06:35:06;17.10;99.90
32660;DHT22;19064;47.912;12.308;2023-06-10T06:37:34;17.20;99.90
32660;DHT22;19064;47.912;12.308;2023-06-10T06:40:02;17.30;99.90
32660;DHT22;19064;47.912;12.308;2023-06-10T06:42:29;17.40;99.90
32660;DHT22;19064;47.912;12.308;2023-06-10T06:44:56;17.40;99.90
32660;DHT22;19064;47.912;12.308;2023-06-10T06:47:24;17.40;99.90
32660;DHT22;19064;47.912;12.308;2023-06-10T06:49:52;17.50;99.90
32660;DHT22;19064;47.912;12.308;2023-06-10T06:52:18;17.60;99.90
32660;DHT22;19064;47.912;12.308;2023-06-10T06:54:45;17.70;99.90
32660;DHT22;19064;47.912;12.308;2023-06-10T06:57:12;17.70;99.90
32660;DHT22;19064;47.912;12.308;2023-06-10T06:59:41;17.80;99.90
32660;DHT22;19064;47.912;12.308;2023-06-10T07:02:08;18.10;99.90
32660;DHT22;19064;47.912;12.308;2023-06-10T07:04:36;18.30;99.90
32660;DHT22;19064;47.912;12.308;2023-06-10T07:07:06;18.50;99.90
32660;DHT22;19064;47.912;12.308;2023-06-10T07:09:33;18.50;99.90
32660;DHT22;19064;47.912;12.308;2023-06-10T07:12:00;18.70;99.90
32660;DHT22;19064;47.912;12.308;2023-06-10T07:14:27;18.80;99.90
32660;DHT22;19064;47.912;12.308;2023-06-10T07:16:53;18.90;99.90
32660;DHT22;19064;47.912;12.308;2023-06-10T07:19:20;18.80;99.90
32660;DHT22;19064;47.912;12.308;2023-06-10T07:21:48;18.80;99.90
32660;DHT22;19064;47.912;12.308;2023-06-10T07:24:15;18.90;99.90
32660;DHT22;19064;47.912;12.308;2023-06-10T07:26:42;19.00;99.90
32660;DHT22;19064;47.912;12.308;2023-06-10T07:29:09;19.00;99.90
32660;DHT22;19064;47.912;12.308;2023-06-10T07:31:35;19.10;99.90
32660;DHT22;19064;47.912;12.308;2023-06-10T07:34:02;19.20;99.90
32660;DHT22;19064;47.912;12.308;2023-06-10T07:36:29;19.30;99.90
32660;DHT22;19064;47.912;12.308;2023-06-10T07:38:59;19.30;99.90
32660;DHT22;19064;47.912;12.308;2023-06-10T07:41:26;19.30;99.90
32660;DHT22;19064;47.912;12.308;2023-06-10T07:43:53;19.40;99.90
32660;DHT22;19064;47.912;12.308;2023-06-10T07:46:21;19.50;99.90
32660;DHT22;19064;47.912;12.308;2023-06-10T07:48:48;19.50;99.90
32660;DHT22;19064;47.912;12.308;2023-06-10T07:51:16;19.50;99.90
32660;DHT22;19064;47.912;12.308;2023-06-10T07:53:43;19.40;99.90
32660;DHT22;19064;47.912;12.308;2023-06-10T07:56:11;19.40;99.90
32660;DHT22;19064;47.912;12.308;2023-06-10T07:58:38;19.50;99.90
32660;DHT22;19064;47.912;12.308;2023-06-10T08:01:05;19.60;99.90
32660;DHT22;19064;47.912;12.308;2023-06-10T08:03:32;19.70;99.90
32660;DHT22;19064;47.912;12.308;2023-06-10T08:05:59;19.70;99.90
32660;DHT22;19064;47.912;12.308;2023-06-10T08:08:26;19.70;99.90
32660;DHT22;19064;47.912;12.308;2023-06-10T08:10:53;19.80;99.90
32660;DHT22;19064;47.912;12.308;2023-06-10T08:13:21;19.80;99.90
32660;DHT22;19064;47.912;12.308;2023-06-10T08:15:49;19.70;99.90
32660;DHT22;19064;47.912;12.308;2023-06-10T08:18:19;19.70;99.90
32660;DHT22;19064;47.912;12.308;2023-06-10T08:20:45;19.70;99.90
32660;DHT22;19064;47.912;12.308;2023-06-10T08:23:12;19.90;99.90
32660;DHT22;19064;47.912;12.308;2023-06-10T08:25:40;20.10;99.90
32660;DHT22;19064;47.912;12.308;2023-06-10T08:28:07;20.30;99.90
32660;DHT22;19064;47.912;12.308;2023-06-10T08:30:35;20.30;99.90
32660;DHT22;19064;47.912;12.308;2023-06-10T08:33:02;20.40;99.90
32660;DHT22;19064;47.912;12.308;2023-06-10T08:35:29;20.50;99.90
32660;DHT22;19064;47.912;12.308;2023-06-10T08:37:55;20.50;99.90
32660;DHT22;19064;47.912;12.308;2023-06-10T08:40:22;20.40;99.90
32660;DHT22;19064;47.912;12.308;2023-06-10T08:42:56;20.50;99.90
32660;DHT22;19064;47.912;12.308;2023-06-10T08:45:30;20.60;99.90
32660;DHT22;19064;47.912;12.308;2023-06-10T08:47:59;20.80;99.90
32660;DHT22;19064;47.912;12.308;2023-06-10T08:50:28;20.70;99.90
32660;DHT22;19064;47.912;12.308;2023-06-10T08:52:58;20.90;99.90
32660;DHT22;19064;47.912;12.308;2023-06-10T08:55:29;21.00;99.90
32660;DHT22;19064;47.912;12.308;2023-06-10T08:57:57;21.10;99.90
32660;DHT22;19064;47.912;12.308;2023-06-10T09:00:25;21.30;99.90
32660;DHT22;19064;47.912;12.308;2023-06-10T09:02:54;21.50;99.90
32660;DHT22;19064;47.912;12.308;2023-06-10T09:05:24;21.70;99.90
32660;DHT22;19064;47.912;12.308;2023-06-10T09:07:56;21.90;99.90
32660;DHT22;19064;47.912;12.308;2023-06-10T09:10:25;22.10;99.90
32660;DHT22;19064;47.912;12.308;2023-06-10T09:12:52;22.00;99.90
32660;DHT22;19064;47.912;12.308;2023-06-10T09:15:19;22.00;99.90
32660;DHT22;19064;47.912;12.308;2023-06-10T09:17:46;22.10;99.90
32660;DHT22;19064;47.912;12.308;2023-06-10T09:20:13;22.10;99.90
32660;DHT22;19064;47.912;12.308;2023-06-10T09:22:43;22.20;99.90
32660;DHT22;19064;47.912;12.308;2023-06-10T09:25:11;22.30;99.90
32660;DHT22;19064;47.912;12.308;2023-06-10T09:27:44;22.40;99.90
32660;DHT22;19064;47.912;12.308;2023-06-10T09:30:23;22.50;99.90
32660;DHT22;19064;47.912;12.308;2023-06-10T09:32:52;22.50;99.90
32660;DHT22;19064;47.912;12.308;2023-06-10T09:35:19;22.40;99.90
32660;DHT22;19064;47.912;12.308;2023-06-10T09:37:51;22.40;99.90
32660;DHT22;19064;47.912;12.308;2023-06-10T09:40:18;22.40;99.90
32660;DHT22;19064;47.912;12.308;2023-06-10T09:42:44;22.30;99.90
32660;DHT22;19064;47.912;12.308;2023-06-10T09:45:14;22.30;99.90
32660;DHT22;19064;47.912;12.308;2023-06-10T09:47:41;22.20;99.90
32660;DHT22;19064;47.912;12.308;2023-06-10T09:50:09;22.10;99.90
32660;DHT22;19064;47.912;12.308;2023-06-10T09:52:37;21.90;99.90
32660;DHT22;19064;47.912;12.308;2023-06-10T09:55:09;21.90;99.90
32660;DHT22;19064;47.912;12.308;2023-06-10T09:57:36;21.80;99.90
32660;DHT22;19064;47.912;12.308;2023-06-10T10:00:05;21.80;99.90
32660;DHT22;19064;47.912;12.308;2023-06-10T10:02:44;21.80;99.90
32660;DHT22;19064;47.912;12.308;2023-06-10T10:05:13;22.00;99.90
32660;DHT22;19064;47.912;12.308;2023-06-10T10:07:40;22.10;99.90
32660;DHT22;19064;47.912;12.308;2023-06-10T10:10:10;22.30;99.90
32660;DHT22;19064;47.912;12.308;2023-06-10T10:12:39;22.40;99.90
32660;DHT22;19064;47.912;12.308;2023-06-10T10:15:09;22.80;99.90
32660;DHT22;19064;47.912;12.308;2023-06-10T10:17:40;22.90;99.90
32660;DHT22;19064;47.912;12.308;2023-06-10T10:20:12;23.10;99.90
32660;DHT22;19064;47.912;12.308;2023-06-10T10:22:42;23.30;99.90
32660;DHT22;19064;47.912;12.308;2023-06-10T10:25:13;23.40;99.90
32660;DHT22;19064;47.912;12.308;2023-06-10T10:27:47;23.60;99.90
32660;DHT22;19064;47.912;12.308;2023-06-10T10:30:17;23.40;99.90
32660;DHT22;19064;47.912;12.308;2023-06-10T10:33:04;23.40;99.90
32660;DHT22;19064;47.912;12.308;2023-06-10T10:35:32;23.50;99.90
32660;DHT22;19064;47.912;12.308;2023-06-10T10:38:00;23.80;99.90
32660;DHT22;19064;47.912;12.308;2023-06-10T10:40:29;24.00;99.90
32660;DHT22;19064;47.912;12.308;2023-06-10T10:42:58;24.00;99.90
32660;DHT22;19064;47.912;12.308;2023-06-10T10:45:27;24.10;99.90
32660;DHT22;19064;47.912;12.308;2023-06-10T10:47:54;24.40;99.90
32660;DHT22;19064;47.912;12.308;2023-06-10T10:50:25;24.50;99.90
32660;DHT22;19064;47.912;12.308;2023-06-10T10:53:00;24.60;99.90
32660;DHT22;19064;47.912;12.308;2023-06-10T10:55:30;24.70;99.90
32660;DHT22;19064;47.912;12.308;2023-06-10T10:57:59;24.90;99.90
32660;DHT22;19064;47.912;12.308;2023-06-10T11:00:29;24.90;99.90
32660;DHT22;19064;47.912;12.308;2023-06-10T11:03:05;24.90;99.90
32660;DHT22;19064;47.912;12.308;2023-06-10T11:05:37;24.70;99.90
32660;DHT22;19064;47.912;12.308;2023-06-10T11:08:05;24.50;99.90
32660;DHT22;19064;47.912;12.308;2023-06-10T11:10:34;24.30;99.90
32660;DHT22;19064;47.912;12.308;2023-06-10T11:13:06;24.10;99.90
32660;DHT22;19064;47.912;12.308;2023-06-10T11:15:38;23.90;99.90
32660;DHT22;19064;47.912;12.308;2023-06-10T11:18:14;23.80;99.90
32660;DHT22;19064;47.912;12.308;2023-06-10T11:20:52;23.70;99.90
32660;DHT22;19064;47.912;12.308;2023-06-10T11:23:33;24.10;99.90
32660;DHT22;19064;47.912;12.308;2023-06-10T11:26:17;24.20;99.90
32660;DHT22;19064;47.912;12.308;2023-06-10T11:29:06;24.40;99.90
32660;DHT22;19064;47.912;12.308;2023-06-10T11:31:39;24.30;99.90
32660;DHT22;19064;47.912;12.308;2023-06-10T11:34:07;24.30;99.90
32660;DHT22;19064;47.912;12.308;2023-06-10T11:36:37;24.30;99.90
32660;DHT22;19064;47.912;12.308;2023-06-10T11:39:06;24.40;99.90
32660;DHT22;19064;47.912;12.308;2023-06-10T11:41:35;24.50;99.90
32660;DHT22;19064;47.912;12.308;2023-06-10T11:44:03;24.40;99.90
32660;DHT22;19064;47.912;12.308;2023-06-10T11:46:30;24.10;99.90
32660;DHT22;19064;47.912;12.308;2023-06-10T11:48:58;23.60;99.90
32660;DHT22;19064;47.912;12.308;2023-06-10T11:51:30;23.30;99.90
32660;DHT22;19064;47.912;12.308;2023-06-10T11:53:56;23.00;99.90
32660;DHT22;19064;47.912;12.308;2023-06-10T11:56:25;22.80;99.90
32660;DHT22;19064;47.912;12.308;2023-06-10T11:58:55;22.60;99.90
32660;DHT22;19064;47.912;12.308;2023-06-10T12:01:23;22.60;99.90
32660;DHT22;19064;47.912;12.308;2023-06-10T12:03:57;22.60;99.90
32660;DHT22;19064;47.912;12.308;2023-06-10T12:06:25;22.60;99.90
32660;DHT22;19064;47.912;12.308;2023-06-10T12:08:53;22.50;99.90
32660;DHT22;19064;47.912;12.308;2023-06-10T12:11:20;22.30;99.90
32660;DHT22;19064;47.912;12.308;2023-06-10T12:13:49;22.30;99.90
32660;DHT22;19064;47.912;12.308;2023-06-10T12:16:18;22.20;99.90
32660;DHT22;19064;47.912;12.308;2023-06-10T12:18:46;22.10;99.90
32660;DHT22;19064;47.912;12.308;2023-06-10T12:21:17;22.00;99.90
32660;DHT22;19064;47.912;12.308;2023-06-10T12:23:59;21.90;99.90
32660;DHT22;19064;47.912;12.308;2023-06-10T12:26:34;21.70;99.90
32660;DHT22;19064;47.912;12.308;2023-06-10T12:29:18;21.70;99.90
32660;DHT22;19064;47.912;12.308;2023-06-10T12:31:55;21.70;99.90
32660;DHT22;19064;47.912;12.308;2023-06-10T12:34:28;21.60;99.90
32660;DHT22;19064;47.912;12.308;2023-06-10T12:36:56;21.60;99.90
32660;DHT22;19064;47.912;12.308;2023-06-10T12:39:23;21.60;99.90
32660;DHT22;19064;47.912;12.308;2023-06-10T12:41:51;21.60;99.90
32660;DHT22;19064;47.912;12.308;2023-06-10T12:44:29;21.50;99.90
32660;DHT22;19064;47.912;12.308;2023-06-10T12:46:59;21.60;99.90
32660;DHT22;19064;47.912;12.308;2023-06-10T12:49:27;21.60;99.90
32660;DHT22;19064;47.912;12.308;2023-06-10T12:51:56;21.60;99.90
32660;DHT22;19064;47.912;12.308;2023-06-10T12:54:23;21.60;99.90
32660;DHT22;19064;47.912;12.308;2023-06-10T12:56:51;21.50;99.90
32660;DHT22;19064;47.912;12.308;2023-06-10T12:59:18;21.50;99.90
32660;DHT22;19064;47.912;12.308;2023-06-10T13:01:50;21.50;99.90
32660;DHT22;19064;47.912;12.308;2023-06-10T13:04:19;21.60;99.90
32660;DHT22;19064;47.912;12.308;2023-06-10T13:06:47;21.70;99.90
32660;DHT22;19064;47.912;12.308;2023-06-10T13:09:14;21.70;99.90
32660;DHT22;19064;47.912;12.308;2023-06-10T13:11:42;21.90;99.90
32660;DHT22;19064;47.912;12.308;2023-06-10T13:14:10;22.00;99.90
32660;DHT22;19064;47.912;12.308;2023-06-10T13:16:38;22.10;99.90
32660;DHT22;19064;47.912;12.308;2023-06-10T13:19:05;22.20;99.90
32660;DHT22;19064;47.912;12.308;2023-06-10T13:21:34;22.40;99.90
32660;DHT22;19064;47.912;12.308;2023-06-10T13:24:01;22.60;99.90
32660;DHT22;19064;47.912;12.308;2023-06-10T13:26:28;22.80;99.90
32660;DHT22;19064;47.912;12.308;2023-06-10T13:28:55;22.80;99.90
32660;DHT22;19064;47.912;12.308;2023-06-10T13:31:22;22.90;99.90
32660;DHT22;19064;47.912;12.308;2023-06-10T13:33:49;23.10;99.90
32660;DHT22;19064;47.912;12.308;2023-06-10T13:36:16;23.10;99.90
32660;DHT22;19064;47.912;12.308;2023-06-10T13:38:45;23.20;99.90
32660;DHT22;19064;47.912;12.308;2023-06-10T13:41:14;23.30;99.90
32660;DHT22;19064;47.912;12.308;2023-06-10T13:43:40;23.60;99.90
32660;DHT22;19064;47.912;12.308;2023-06-10T13:46:07;23.60;99.90
32660;DHT22;19064;47.912;12.308;2023-06-10T13:48:34;23.50;99.90
32660;DHT22;19064;47.912;12.308;2023-06-10T13:51:01;23.60;99.90
32660;DHT22;19064;47.912;12.308;2023-06-10T13:53:28;23.50;99.90
32660;DHT22;19064;47.912;12.308;2023-06-10T13:55:56;23.40;99.90
32660;DHT22;19064;47.912;12.308;2023-06-10T13:58:24;23.30;99.90
32660;DHT22;19064;47.912;12.308;2023-06-10T14:00:51;23.30;99.90
32660;DHT22;19064;47.912;12.308;2023-06-10T14:03:18;23.40;99.90
32660;DHT22;19064;47.912;12.308;2023-06-10T14:05:45;23.50;99.90
32660;DHT22;19064;47.912;12.308;2023-06-10T14:08:12;23.50;99.90
32660;DHT22;19064;47.912;12.308;2023-06-10T14:10:40;23.60;99.90
32660;DHT22;19064;47.912;12.308;2023-06-10T14:13:09;23.70;99.90
32660;DHT22;19064;47.912;12.308;2023-06-10T14:15:36;23.60;99.90
32660;DHT22;19064;47.912;12.308;2023-06-10T14:18:04;23.40;99.90
32660;DHT22;19064;47.912;12.308;2023-06-10T14:20:33;23.50;99.90
32660;DHT22;19064;47.912;12.308;2023-06-10T14:23:00;23.60;99.90
32660;DHT22;19064;47.912;12.308;2023-06-10T14:25:26;23.60;99.90
32660;DHT22;19064;47.912;12.308;2023-06-10T14:27:53;23.60;99.90
32660;DHT22;19064;47.912;12.308;2023-06-10T14:30:21;23.70;99.90
32660;DHT22;19064;47.912;12.308;2023-06-10T14:32:48;23.60;99.90
32660;DHT22;19064;47.912;12.308;2023-06-10T14:35:15;23.50;99.90
32660;DHT22;19064;47.912;12.308;2023-06-10T14:37:42;23.50;99.90
32660;DHT22;19064;47.912;12.308;2023-06-10T14:40:09;23.50;99.90
32660;DHT22;19064;47.912;12.308;2023-06-10T14:42:36;23.40;99.90
32660;DHT22;19064;47.912;12.308;2023-06-10T14:45:04;23.30;99.90
32660;DHT22;19064;47.912;12.308;2023-06-10T14:47:32;23.40;99.90
32660;DHT22;19064;47.912;12.308;2023-06-10T14:49:59;23.40;99.90
32660;DHT22;19064;47.912;12.308;2023-06-10T14:52:26;23.40;99.90
32660;DHT22;19064;47.912;12.308;2023-06-10T14:54:53;23.60;99.90
32660;DHT22;19064;47.912;12.308;2023-06-10T14:57:19;23.70;99.90
32660;DHT22;19064;47.912;12.308;2023-06-10T14:59:46;23.80;99.90
32660;DHT22;19064;47.912;12.308;2023-06-10T15:02:13;23.90;99.90
32660;DHT22;19064;47.912;12.308;2023-06-10T15:04:41;24.10;99.90
32660;DHT22;19064;47.912;12.308;2023-06-10T15:07:08;24.20;99.90
32660;DHT22;19064;47.912;12.308;2023-06-10T15:09:35;24.10;99.90
32660;DHT22;19064;47.912;12.308;2023-06-10T15:12:02;24.10;99.90
32660;DHT22;19064;47.912;12.308;2023-06-10T15:14:31;24.30;99.90
32660;DHT22;19064;47.912;12.308;2023-06-10T15:16:57;24.40;99.90
32660;DHT22;19064;47.912;12.308;2023-06-10T15:19:24;24.30;99.90
32660;DHT22;19064;47.912;12.308;2023-06-10T15:21:53;24.20;99.90